Map

Track Data

SID SEASON NUMBER BASIN SUBBASIN NAME ISO_TIME NATURE LAT LON WMO_WIND WMO_PRES WMO_AGENCY TRACK_TYPE DIST2LAND LANDFALL IFLAG USA_AGENCY USA_ATCF_ID USA_LAT USA_LON USA_RECORD USA_STATUS USA_WIND USA_PRES USA_SSHS USA_R34_NE USA_R34_SE USA_R34_SW USA_R34_NW USA_R50_NE USA_R50_SE USA_R50_SW USA_R50_NW USA_R64_NE USA_R64_SE USA_R64_SW USA_R64_NW USA_POCI USA_ROCI USA_RMW USA_EYE TOKYO_LAT TOKYO_LON TOKYO_GRADE TOKYO_WIND TOKYO_PRES TOKYO_R50_DIR TOKYO_R50_LONG TOKYO_R50_SHORT TOKYO_R30_DIR TOKYO_R30_LONG TOKYO_R30_SHORT TOKYO_LAND CMA_LAT CMA_LON CMA_CAT CMA_WIND CMA_PRES HKO_LAT HKO_LON HKO_CAT HKO_WIND HKO_PRES NEWDELHI_LAT NEWDELHI_LON NEWDELHI_GRADE NEWDELHI_WIND NEWDELHI_PRES NEWDELHI_CI NEWDELHI_DP NEWDELHI_POCI REUNION_LAT REUNION_LON REUNION_TYPE REUNION_WIND REUNION_PRES REUNION_TNUM REUNION_CI REUNION_RMW REUNION_R34_NE REUNION_R34_SE REUNION_R34_SW REUNION_R34_NW REUNION_R50_NE REUNION_R50_SE REUNION_R50_SW REUNION_R50_NW REUNION_R64_NE REUNION_R64_SE REUNION_R64_SW REUNION_R64_NW BOM_LAT BOM_LON BOM_TYPE BOM_WIND BOM_PRES BOM_TNUM BOM_CI BOM_RMW BOM_R34_NE BOM_R34_SE BOM_R34_SW BOM_R34_NW BOM_R50_NE BOM_R50_SE BOM_R50_SW BOM_R50_NW BOM_R64_NE BOM_R64_SE BOM_R64_SW BOM_R64_NW BOM_ROCI BOM_POCI BOM_EYE BOM_POS_METHOD BOM_PRES_METHOD NADI_LAT NADI_LON NADI_CAT NADI_WIND NADI_PRES WELLINGTON_LAT WELLINGTON_LON WELLINGTON_WIND WELLINGTON_PRES DS824_LAT DS824_LON DS824_STAGE DS824_WIND DS824_PRES TD9636_LAT TD9636_LON TD9636_STAGE TD9636_WIND TD9636_PRES TD9635_LAT TD9635_LON TD9635_WIND TD9635_PRES TD9635_ROCI NEUMANN_LAT NEUMANN_LON NEUMANN_CLASS NEUMANN_WIND NEUMANN_PRES MLC_LAT MLC_LON MLC_CLASS MLC_WIND MLC_PRES USA_GUST BOM_GUST BOM_GUST_PER REUNION_GUST REUNION_GUST_PER USA_SEAHGT USA_SEARAD_NE USA_SEARAD_SE USA_SEARAD_SW USA_SEARAD_NW STORM_SPEED STORM_DIR
1969302N31318 1969 106 NA NA NOT_NAMED 1969-10-28 12:00:00 SS 30.5000 -42.5000 25 1014 hurdat_atl main 2014 1953 O_____________ hurdat_atl AL271969 30.5000 -42.5000 SD 25 1014 -2 13 310
1969302N31318 1969 106 NA NA NOT_NAMED 1969-10-28 15:00:00 SS 30.9131 -43.0663 main 1950 1890 P_____________ AL271969 30.9131 -43.0663 SD 27 1012 -2 12 310
1969302N31318 1969 106 NA NA NOT_NAMED 1969-10-28 18:00:00 SS 31.3000 -43.6000 30 hurdat_atl main 1890 1844 I_____________ hurdat_atl AL271969 31.3000 -43.6000 SD 30 1010 -2 11 311
1969302N31318 1969 106 NA NA NOT_NAMED 1969-10-28 21:00:00 SS 31.6497 -44.0731 main 1841 1785 P_____________ AL271969 31.6497 -44.0731 SD 32 1008 -2 10 312
1969302N31318 1969 106 NA NA NOT_NAMED 1969-10-29 00:00:00 SS 32.0000 -44.5000 35 1007 hurdat_atl main 1785 1730 O_____________ hurdat_atl AL271969 32.0000 -44.5000 SS 35 1007 -2 10 316
1969302N31318 1969 106 NA NA NOT_NAMED 1969-10-29 03:00:00 SS 32.3999 -44.9151 main 1730 1675 P_____________ AL271969 32.3999 -44.9151 SS 40 1004 -2 10 320
1969302N31318 1969 106 NA NA NOT_NAMED 1969-10-29 06:00:00 SS 32.8000 -45.3000 45 hurdat_atl main 1675 1623 I_____________ hurdat_atl AL271969 32.8000 -45.3000 SS 45 1001 -2 10 321
1969302N31318 1969 106 NA NA NOT_NAMED 1969-10-29 09:00:00 SS 33.1724 -45.6652 main 1620 1579 P_____________ AL271969 33.1724 -45.6652 SS 47 998 -2 9 320
1969302N31318 1969 106 NA NA NOT_NAMED 1969-10-29 12:00:00 SS 33.5000 -46.0000 50 995 hurdat_atl main 1579 1538 O_____________ hurdat_atl AL271969 33.5000 -46.0000 SS 50 995 -2 8 317
1969302N31318 1969 106 NA NA NOT_NAMED 1969-10-29 15:00:00 SS 33.7650 -46.3228 main 1538 1507 P_____________ AL271969 33.7650 -46.3228 SS 52 994 -2 7 315
1969302N31318 1969 106 NA NA NOT_NAMED 1969-10-29 18:00:00 SS 34.0000 -46.6000 55 hurdat_atl main 1507 1480 I_____________ hurdat_atl AL271969 34.0000 -46.6000 SS 55 994 -2 6 316
1969302N31318 1969 106 NA NA NOT_NAMED 1969-10-29 21:00:00 SS 34.2275 -46.8598 main 1477 1442 P_____________ AL271969 34.2275 -46.8598 SS 55 993 -2 6 326
1969302N31318 1969 106 NA NA NOT_NAMED 1969-10-30 00:00:00 TS 34.5000 -47.0000 55 993 hurdat_atl main 1442 1400 O_____________ hurdat_atl AL271969 34.5000 -47.0000 TS 55 993 0 7 351
1969302N31318 1969 106 NA NA NOT_NAMED 1969-10-30 03:00:00 TS 34.8847 -46.9899 main 1400 1365 P_____________ AL271969 34.8847 -46.9899 TS 57 992 0 8 12
1969302N31318 1969 106 NA NA NOT_NAMED 1969-10-30 06:00:00 TS 35.3000 -46.8000 60 hurdat_atl main 1365 1341 I_____________ hurdat_atl AL271969 35.3000 -46.8000 TS 60 991 0 9 28
1969302N31318 1969 106 NA NA NOT_NAMED 1969-10-30 09:00:00 TS 35.6497 -46.4820 main 1344 1317 P_____________ AL271969 35.6497 -46.4820 TS 60 990 0 10 43
1969302N31318 1969 106 NA NA NOT_NAMED 1969-10-30 12:00:00 TS 36.0000 -46.0000 60 990 hurdat_atl main 1321 1300 O_____________ hurdat_atl AL271969 36.0000 -46.0000 TS 60 990 0 11 49
1969302N31318 1969 106 NA NA NOT_NAMED 1969-10-30 15:00:00 TS 36.3996 -45.4173 main 1304 1291 P_____________ AL271969 36.3996 -45.4173 TS 60 990 0 13 53
1969302N31318 1969 106 NA NA NOT_NAMED 1969-10-30 18:00:00 TS 36.8000 -44.7000 60 hurdat_atl main 1295 1289 I_____________ hurdat_atl AL271969 36.8000 -44.7000 TS 60 990 0 14 57
1969302N31318 1969 106 NA NA NOT_NAMED 1969-10-30 21:00:00 TS 37.1793 -43.9099 main 1294 1294 P_____________ AL271969 37.1793 -43.9099 TS 60 990 0 15 63
1969302N31318 1969 106 NA NA NOT_NAMED 1969-10-31 00:00:00 TS 37.5000 -43.0000 60 990 hurdat_atl main 1312 1312 O_____________ hurdat_atl AL271969 37.5000 -43.0000 TS 60 990 0 16 70
1969302N31318 1969 106 NA NA NOT_NAMED 1969-10-31 03:00:00 TS 37.7442 -42.0022 main 1348 1345 P_____________ AL271969 37.7442 -42.0022 TS 57 991 0 17 76
1969302N31318 1969 106 NA NA NOT_NAMED 1969-10-31 06:00:00 TS 37.9000 -40.9000 55 hurdat_atl main 1394 1394 I_____________ hurdat_atl AL271969 37.9000 -40.9000 TS 55 992 0 17 82
1969302N31318 1969 106 NA NA NOT_NAMED 1969-10-31 09:00:00 TS 37.9765 -39.8040 main 1452 1452 P_____________ AL271969 37.9765 -39.8040 TS 52 993 0 19 87
1969302N31318 1969 106 NA NA NOT_NAMED 1969-10-31 12:00:00 TS 38.0000 -38.5000 50 995 hurdat_atl main 1533 1533 O_____________ hurdat_atl AL271969 38.0000 -38.5000 TS 50 995 0 23 89
1969302N31318 1969 106 NA NA NOT_NAMED 1969-10-31 15:00:00 TS 38.0103 -36.8529 main 1635 1635 P_____________ AL271969 38.0103 -36.8529 TS 47 0 28 90
1969302N31318 1969 106 NA NA NOT_NAMED 1969-10-31 18:00:00 ET 38.0000 -35.0000 45 hurdat_atl main 1761 O_____________ hurdat_atl AL271969 38.0000 -35.0000 EX 45 -4 29 90

About IBTrACS Database

This database is a web-friendly format of International Best Track Archive for Climate Stewardship (IBTrACS), a global best track data archive curated by NOAA dating back to 1842.

Updated: 2021-12-06